sensor_id;sensor_type;location;lat;lon;timestamp;pressure;altitude;pressure_sealevel;temperature;humidity
68594;BME280;55563;52.416;13.548;2022-11-30T00:01:30;101904.78;;;3.49;100.00
68594;BME280;55563;52.416;13.548;2022-11-30T00:03:30;101910.59;;;3.51;100.00
68594;BME280;55563;52.416;13.548;2022-11-30T00:05:31;101906.19;;;3.51;100.00
68594;BME280;55563;52.416;13.548;2022-11-30T00:07:32;101904.78;;;3.49;100.00
68594;BME280;55563;52.416;13.548;2022-11-30T00:09:33;101899.75;;;3.47;100.00
68594;BME280;55563;52.416;13.548;2022-11-30T00:11:34;101904.31;;;3.45;100.00
68594;BME280;55563;52.416;13.548;2022-11-30T00:13:35;101900.94;;;3.45;100.00
68594;BME280;55563;52.416;13.548;2022-11-30T00:15:36;101896.72;;;3.44;100.00
68594;BME280;55563;52.416;13.548;2022-11-30T00:17:37;101900.28;;;3.43;100.00
68594;BME280;55563;52.416;13.548;2022-11-30T00:19:38;101896.72;;;3.44;100.00
68594;BME280;55563;52.416;13.548;2022-11-30T00:21:38;101892.50;;;3.43;100.00
68594;BME280;55563;52.416;13.548;2022-11-30T00:23:41;101898.50;;;3.43;100.00
68594;BME280;55563;52.416;13.548;2022-11-30T00:25:42;101904.06;;;3.40;100.00
68594;BME280;55563;52.416;13.548;2022-11-30T00:27:43;101901.47;;;3.40;100.00
68594;BME280;55563;52.416;13.548;2022-11-30T00:29:44;101894.47;;;3.41;100.00
68594;BME280;55563;52.416;13.548;2022-11-30T00:31:44;101898.88;;;3.40;100.00
68594;BME280;55563;52.416;13.548;2022-11-30T00:33:45;101902.09;;;3.42;100.00
68594;BME280;55563;52.416;13.548;2022-11-30T00:35:56;101896.44;;;3.39;100.00
68594;BME280;55563;52.416;13.548;2022-11-30T00:38:00;101896.44;;;3.39;100.00
68594;BME280;55563;52.416;13.548;2022-11-30T00:40:03;101897.44;;;3.38;100.00
68594;BME280;55563;52.416;13.548;2022-11-30T00:42:04;101899.38;;;3.36;100.00
68594;BME280;55563;52.416;13.548;2022-11-30T00:44:05;101896.00;;;3.35;100.00
68594;BME280;55563;52.416;13.548;2022-11-30T00:46:06;101902.19;;;3.34;100.00
68594;BME280;55563;52.416;13.548;2022-11-30T00:48:08;101906.41;;;3.35;100.00
68594;BME280;55563;52.416;13.548;2022-11-30T00:50:09;101901.00;;;3.37;100.00
68594;BME280;55563;52.416;13.548;2022-11-30T00:52:10;101903.00;;;3.35;100.00
68594;BME280;55563;52.416;13.548;2022-11-30T00:54:11;101910.16;;;3.33;100.00
68594;BME280;55563;52.416;13.548;2022-11-30T00:56:12;101910.53;;;3.30;100.00
68594;BME280;55563;52.416;13.548;2022-11-30T00:58:13;101905.31;;;3.30;100.00
68594;BME280;55563;52.416;13.548;2022-11-30T01:00:15;101902.88;;;3.28;100.00
68594;BME280;55563;52.416;13.548;2022-11-30T01:02:16;101904.34;;;3.31;100.00
68594;BME280;55563;52.416;13.548;2022-11-30T01:04:16;101912.13;;;3.31;100.00
68594;BME280;55563;52.416;13.548;2022-11-30T01:06:17;101909.34;;;3.32;100.00
68594;BME280;55563;52.416;13.548;2022-11-30T01:08:18;101912.13;;;3.31;100.00
68594;BME280;55563;52.416;13.548;2022-11-30T01:10:19;101917.13;;;3.32;100.00
68594;BME280;55563;52.416;13.548;2022-11-30T01:12:22;101914.91;;;3.29;100.00
68594;BME280;55563;52.416;13.548;2022-11-30T01:14:23;101914.72;;;3.31;100.00
68594;BME280;55563;52.416;13.548;2022-11-30T01:16:26;101916.06;;;3.27;100.00
68594;BME280;55563;52.416;13.548;2022-11-30T01:18:28;101912.31;;;3.29;100.00
68594;BME280;55563;52.416;13.548;2022-11-30T01:20:28;101920.09;;;3.29;100.00
68594;BME280;55563;52.416;13.548;2022-11-30T01:22:29;101909.88;;;3.28;100.00
68594;BME280;55563;52.416;13.548;2022-11-30T01:24:30;101916.06;;;3.27;100.00
68594;BME280;55563;52.416;13.548;2022-11-30T01:26:30;101921.16;;;3.20;100.00
68594;BME280;55563;52.416;13.548;2022-11-30T01:28:31;101926.97;;;3.22;100.00
68594;BME280;55563;52.416;13.548;2022-11-30T01:30:32;101929.56;;;3.22;100.00
68594;BME280;55563;52.416;13.548;2022-11-30T01:32:33;101922.44;;;3.24;100.00
68594;BME280;55563;52.416;13.548;2022-11-30T01:34:33;101928.22;;;3.26;100.00
68594;BME280;55563;52.416;13.548;2022-11-30T01:36:34;101920.00;;;3.23;100.00
68594;BME280;55563;52.416;13.548;2022-11-30T01:38:40;101919.66;;;3.26;100.00
68594;BME280;55563;52.416;13.548;2022-11-30T01:40:49;101917.59;;;3.21;100.00
68594;BME280;55563;52.416;13.548;2022-11-30T01:42:50;101924.38;;;3.22;100.00
68594;BME280;55563;52.416;13.548;2022-11-30T01:44:57;101913.19;;;3.22;100.00
68594;BME280;55563;52.416;13.548;2022-11-30T01:47:05;101926.16;;;3.22;100.00
68594;BME280;55563;52.416;13.548;2022-11-30T01:51:20;101924.75;;;3.19;100.00
68594;BME280;55563;52.416;13.548;2022-11-30T01:53:23;101918.28;;;3.15;100.00
68594;BME280;55563;52.416;13.548;2022-11-30T01:55:41;101923.28;;;3.17;100.00
68594;BME280;55563;52.416;13.548;2022-11-30T01:57:50;101921.06;;;3.14;100.00
68594;BME280;55563;52.416;13.548;2022-11-30T01:59:53;101924.31;;;3.16;100.00
68594;BME280;55563;52.416;13.548;2022-11-30T02:01:56;101922.03;;;3.13;100.00
68594;BME280;55563;52.416;13.548;2022-11-30T02:04:02;101923.81;;;3.12;100.00
68594;BME280;55563;52.416;13.548;2022-11-30T02:06:04;101922.56;;;3.08;100.00
68594;BME280;55563;52.416;13.548;2022-11-30T02:08:06;101927.44;;;3.11;100.00
68594;BME280;55563;52.416;13.548;2022-11-30T02:10:14;101936.81;;;3.12;100.00
68594;BME280;55563;52.416;13.548;2022-11-30T02:12:33;101925.28;;;3.15;100.00
68594;BME280;55563;52.416;13.548;2022-11-30T02:14:42;101930.47;;;3.15;100.00
68594;BME280;55563;52.416;13.548;2022-11-30T02:17:06;101929.84;;;3.13;100.00
68594;BME280;55563;52.416;13.548;2022-11-30T02:29:01;101925.97;;;3.08;100.00
68594;BME280;55563;52.416;13.548;2022-11-30T02:31:07;101931.53;;;3.05;100.00
68594;BME280;55563;52.416;13.548;2022-11-30T02:33:14;101931.19;;;3.08;100.00
68594;BME280;55563;52.416;13.548;2022-11-30T02:35:18;101933.59;;;3.10;100.00
68594;BME280;55563;52.416;13.548;2022-11-30T02:37:22;101935.41;;;3.10;100.00
68594;BME280;55563;52.416;13.548;2022-11-30T02:39:24;101933.78;;;3.08;100.00
68594;BME280;55563;52.416;13.548;2022-11-30T02:41:24;101934.75;;;3.07;100.00
68594;BME280;55563;52.416;13.548;2022-11-30T02:43:27;101928.94;;;3.05;100.00
68594;BME280;55563;52.416;13.548;2022-11-30T02:45:34;101936.91;;;3.04;100.00
68594;BME280;55563;52.416;13.548;2022-11-30T02:47:54;101924.38;;;3.07;100.00
68594;BME280;55563;52.416;13.548;2022-11-30T02:50:01;101927.97;;;3.06;100.00
68594;BME280;55563;52.416;13.548;2022-11-30T02:52:04;101933.31;;;3.05;100.00
68594;BME280;55563;52.416;13.548;2022-11-30T02:54:06;101932.34;;;3.06;100.00
68594;BME280;55563;52.416;13.548;2022-11-30T02:56:07;101937.06;;;3.02;100.00
68594;BME280;55563;52.416;13.548;2022-11-30T02:58:09;101934.47;;;3.02;100.00
68594;BME280;55563;52.416;13.548;2022-11-30T03:00:12;101942.09;;;3.04;100.00
68594;BME280;55563;52.416;13.548;2022-11-30T03:02:13;101935.66;;;3.00;100.00
68594;BME280;55563;52.416;13.548;2022-11-30T03:04:14;101939.38;;;2.97;100.00
68594;BME280;55563;52.416;13.548;2022-11-30T03:06:14;101941.66;;;3.00;100.00
68594;BME280;55563;52.416;13.548;2022-11-30T03:08:15;101933.41;;;2.97;100.00
68594;BME280;55563;52.416;13.548;2022-11-30T03:10:16;101939.22;;;2.99;100.00
68594;BME280;55563;52.416;13.548;2022-11-30T03:12:17;101947.53;;;2.94;100.00
68594;BME280;55563;52.416;13.548;2022-11-30T03:14:17;101939.88;;;3.01;100.00
68594;BME280;55563;52.416;13.548;2022-11-30T03:16:18;101940.56;;;2.95;100.00
68594;BME280;55563;52.416;13.548;2022-11-30T03:18:19;101941.00;;;2.98;100.00
68594;BME280;55563;52.416;13.548;2022-11-30T03:20:20;101946.69;;;3.02;100.00
68594;BME280;55563;52.416;13.548;2022-11-30T03:22:20;101956.25;;;3.01;100.00
68594;BME280;55563;52.416;13.548;2022-11-30T03:24:21;101951.22;;;3.00;100.00
68594;BME280;55563;52.416;13.548;2022-11-30T03:26:22;101950.13;;;2.94;100.00
68594;BME280;55563;52.416;13.548;2022-11-30T03:28:23;101955.34;;;2.94;100.00
68594;BME280;55563;52.416;13.548;2022-11-30T03:30:24;101948.34;;;2.95;100.00
68594;BME280;55563;52.416;13.548;2022-11-30T03:32:25;101953.19;;;2.98;100.00
68594;BME280;55563;52.416;13.548;2022-11-30T03:34:26;101949.78;;;2.97;100.00
68594;BME280;55563;52.416;13.548;2022-11-30T03:36:28;101953.63;;;2.87;100.00
68594;BME280;55563;52.416;13.548;2022-11-30T03:38:29;101948.34;;;2.95;100.00
68594;BME280;55563;52.416;13.548;2022-11-30T03:40:30;101946.72;;;2.94;100.00
68594;BME280;55563;52.416;13.548;2022-11-30T03:42:31;101956.50;;;2.92;100.00
68594;BME280;55563;52.416;13.548;2022-11-30T03:44:31;101955.34;;;2.94;100.00
68594;BME280;55563;52.416;13.548;2022-11-30T03:46:32;101955.16;;;2.96;100.00
68594;BME280;55563;52.416;13.548;2022-11-30T03:48:33;101958.44;;;2.90;100.00
68594;BME280;55563;52.416;13.548;2022-11-30T03:50:35;101960.94;;;2.83;100.00
68594;BME280;55563;52.416;13.548;2022-11-30T03:52:36;101957.81;;;2.88;100.00
68594;BME280;55563;52.416;13.548;2022-11-30T03:54:36;101962.66;;;2.91;100.00
68594;BME280;55563;52.416;13.548;2022-11-30T03:56:37;101955.03;;;2.89;100.00
68594;BME280;55563;52.416;13.548;2022-11-30T03:58:38;101966.06;;;2.91;100.00
68594;BME280;55563;52.416;13.548;2022-11-30T04:00:39;101963.66;;;2.90;100.00
68594;BME280;55563;52.416;13.548;2022-11-30T04:02:40;101967.88;;;2.91;100.00
68594;BME280;55563;52.416;13.548;2022-11-30T04:04:41;101964.00;;;2.87;100.00
68594;BME280;55563;52.416;13.548;2022-11-30T04:06:41;101960.59;;;2.86;100.00
68594;BME280;55563;52.416;13.548;2022-11-30T04:08:42;101970.00;;;2.87;100.00
68594;BME280;55563;52.416;13.548;2022-11-30T04:10:46;101967.56;;;2.86;100.00
68594;BME280;55563;52.416;13.548;2022-11-30T04:12:47;101975.09;;;2.81;100.00
68594;BME280;55563;52.416;13.548;2022-11-30T04:14:48;101974.91;;;2.82;100.00
68594;BME280;55563;52.416;13.548;2022-11-30T04:16:48;101977.31;;;2.84;100.00
68594;BME280;55563;52.416;13.548;2022-11-30T04:18:49;101979.91;;;2.84;100.00
68594;BME280;55563;52.416;13.548;2022-11-30T04:20:52;101982.34;;;2.85;100.00
68594;BME280;55563;52.416;13.548;2022-11-30T04:22:56;101979.31;;;2.82;100.00
68594;BME280;55563;52.416;13.548;2022-11-30T04:24:57;101973.63;;;2.78;100.00
68594;BME280;55563;52.416;13.548;2022-11-30T04:26:58;101978.56;;;2.73;100.00
68594;BME280;55563;52.416;13.548;2022-11-30T04:28:58;101985.53;;;2.73;100.00
68594;BME280;55563;52.416;13.548;2022-11-30T04:30:59;101981.41;;;2.78;100.00
68594;BME280;55563;52.416;13.548;2022-11-30T04:33:00;101983.22;;;2.78;100.00
68594;BME280;55563;52.416;13.548;2022-11-30T04:35:01;101979.97;;;2.76;100.00
68594;BME280;55563;52.416;13.548;2022-11-30T04:37:02;101983.84;;;2.80;100.00
68594;BME280;55563;52.416;13.548;2022-11-30T04:39:03;101989.19;;;2.78;100.00
68594;BME280;55563;52.416;13.548;2022-11-30T04:41:07;101985.63;;;2.79;100.00
68594;BME280;55563;52.416;13.548;2022-11-30T04:43:09;101990.19;;;2.77;100.00
68594;BME280;55563;52.416;13.548;2022-11-30T04:45:10;101995.72;;;2.74;100.00
68594;BME280;55563;52.416;13.548;2022-11-30T04:47:11;101991.78;;;2.78;100.00
68594;BME280;55563;52.416;13.548;2022-11-30T04:49:12;101986.59;;;2.78;100.00
68594;BME280;55563;52.416;13.548;2022-11-30T04:51:13;101995.41;;;2.77;100.00
68594;BME280;55563;52.416;13.548;2022-11-30T04:53:14;101997.81;;;2.79;100.00
68594;BME280;55563;52.416;13.548;2022-11-30T04:55:15;101994.22;;;2.80;100.00
68594;BME280;55563;52.416;13.548;2022-11-30T04:57:18;101996.00;;;2.79;100.00
68594;BME280;55563;52.416;13.548;2022-11-30T04:59:19;101996.22;;;2.78;100.00
68594;BME280;55563;52.416;13.548;2022-11-30T05:01:20;101994.91;;;2.74;100.00
68594;BME280;55563;52.416;13.548;2022-11-30T05:03:20;101995.91;;;2.73;100.00
68594;BME280;55563;52.416;13.548;2022-11-30T05:05:21;101995.72;;;2.74;100.00
68594;BME280;55563;52.416;13.548;2022-11-30T05:07:22;101994.59;;;2.77;100.00
68594;BME280;55563;52.416;13.548;2022-11-30T05:09:23;101997.34;;;2.75;100.00
68594;BME280;55563;52.416;13.548;2022-11-30T05:11:23;101998.59;;;2.79;100.00
68594;BME280;55563;52.416;13.548;2022-11-30T05:13:25;101999.41;;;2.80;100.00
68594;BME280;55563;52.416;13.548;2022-11-30T05:15:25;102003.63;;;2.81;100.00
68594;BME280;55563;52.416;13.548;2022-11-30T05:17:26;102002.25;;;2.70;100.00
68594;BME280;55563;52.416;13.548;2022-11-30T05:19:27;102009.19;;;2.78;100.00
68594;BME280;55563;52.416;13.548;2022-11-30T05:21:28;102013.06;;;2.82;100.00
68594;BME280;55563;52.416;13.548;2022-11-30T05:23:28;102014.19;;;2.79;100.00
68594;BME280;55563;52.416;13.548;2022-11-30T05:25:29;102019.72;;;2.76;100.00
68594;BME280;55563;52.416;13.548;2022-11-30T05:27:30;102020.09;;;2.73;100.00
68594;BME280;55563;52.416;13.548;2022-11-30T05:29:30;102020.25;;;2.72;100.00
68594;BME280;55563;52.416;13.548;2022-11-30T05:31:32;102018.13;;;2.75;100.00
68594;BME280;55563;52.416;13.548;2022-11-30T05:33:33;102020.25;;;2.72;100.00
68594;BME280;55563;52.416;13.548;2022-11-30T05:35:34;102030.47;;;2.73;100.00
68594;BME280;55563;52.416;13.548;2022-11-30T05:37:35;102019.44;;;2.71;100.00
68594;BME280;55563;52.416;13.548;2022-11-30T05:39:37;102025.28;;;2.73;100.00
68594;BME280;55563;52.416;13.548;2022-11-30T05:41:37;102018.47;;;2.72;100.00
68594;BME280;55563;52.416;13.548;2022-11-30T05:43:38;102025.28;;;2.73;100.00
68594;BME280;55563;52.416;13.548;2022-11-30T05:45:39;102029.31;;;2.76;100.00
68594;BME280;55563;52.416;13.548;2022-11-30T05:47:40;102030.94;;;2.77;100.00
68594;BME280;55563;52.416;13.548;2022-11-30T05:49:41;102026.72;;;2.76;100.00
68594;BME280;55563;52.416;13.548;2022-11-30T05:51:42;102028.66;;;2.74;100.00
68594;BME280;55563;52.416;13.548;2022-11-30T05:53:43;102035.66;;;2.73;100.00
68594;BME280;55563;52.416;13.548;2022-11-30T05:55:44;102032.25;;;2.73;100.00
68594;BME280;55563;52.416;13.548;2022-11-30T05:57:45;102026.06;;;2.74;100.00
68594;BME280;55563;52.416;13.548;2022-11-30T05:59:46;102036.44;;;2.74;100.00
68594;BME280;55563;52.416;13.548;2022-11-30T06:01:46;102033.69;;;2.75;100.00
68594;BME280;55563;52.416;13.548;2022-11-30T06:03:47;102043.09;;;2.76;100.00
68594;BME280;55563;52.416;13.548;2022-11-30T06:05:50;102042.50;;;2.66;100.00
68594;BME280;55563;52.416;13.548;2022-11-30T06:07:51;102053.03;;;2.73;100.00
68594;BME280;55563;52.416;13.548;2022-11-30T06:09:52;102040.03;;;2.73;100.00
68594;BME280;55563;52.416;13.548;2022-11-30T06:11:52;102047.47;;;2.76;100.00
68594;BME280;55563;52.416;13.548;2022-11-30T06:13:53;102048.66;;;2.73;100.00
68594;BME280;55563;52.416;13.548;2022-11-30T06:15:57;102046.38;;;2.70;100.00
68594;BME280;55563;52.416;13.548;2022-11-30T06:17:58;102049.63;;;2.72;100.00
68594;BME280;55563;52.416;13.548;2022-11-30T06:19:59;102041.84;;;2.72;100.00
68594;BME280;55563;52.416;13.548;2022-11-30T06:22:00;102048.44;;;2.75;100.00
68594;BME280;55563;52.416;13.548;2022-11-30T06:24:00;102051.25;;;2.73;100.00
68594;BME280;55563;52.416;13.548;2022-11-30T06:26:03;102050.25;;;2.74;100.00
68594;BME280;55563;52.416;13.548;2022-11-30T06:28:08;102052.03;;;2.74;100.00
68594;BME280;55563;52.416;13.548;2022-11-30T06:30:09;102055.63;;;2.73;100.00
68594;BME280;55563;52.416;13.548;2022-11-30T06:32:11;102052.84;;;2.74;100.00
68594;BME280;55563;52.416;13.548;2022-11-30T06:34:11;102058.03;;;2.74;100.00
68594;BME280;55563;52.416;13.548;2022-11-30T06:36:12;102059.03;;;2.73;100.00
68594;BME280;55563;52.416;13.548;2022-11-30T06:38:13;102056.06;;;2.76;100.00
68594;BME280;55563;52.416;13.548;2022-11-30T06:40:14;102060.63;;;2.74;100.00
68594;BME280;55563;52.416;13.548;2022-11-30T06:42:15;102069.28;;;2.67;100.00
68594;BME280;55563;52.416;13.548;2022-11-30T06:44:15;102057.41;;;2.72;100.00
68594;BME280;55563;52.416;13.548;2022-11-30T06:46:16;102059.81;;;2.74;100.00
68594;BME280;55563;52.416;13.548;2022-11-30T06:48:17;102071.19;;;2.73;100.00
68594;BME280;55563;52.416;13.548;2022-11-30T06:50:18;102071.19;;;2.73;100.00
68594;BME280;55563;52.416;13.548;2022-11-30T06:52:18;102072.16;;;2.72;100.00
68594;BME280;55563;52.416;13.548;2022-11-30T06:54:19;102068.75;;;2.71;100.00
68594;BME280;55563;52.416;13.548;2022-11-30T06:56:20;102069.41;;;2.73;100.00
68594;BME280;55563;52.416;13.548;2022-11-30T06:58:21;102069.41;;;2.73;100.00
68594;BME280;55563;52.416;13.548;2022-11-30T07:00:21;102077.97;;;2.74;100.00
68594;BME280;55563;52.416;13.548;2022-11-30T07:02:23;102083.81;;;2.76;100.00
68594;BME280;55563;52.416;13.548;2022-11-30T07:04:24;102075.22;;;2.75;100.00
68594;BME280;55563;52.416;13.548;2022-11-30T07:06:25;102088.03;;;2.77;100.00
68594;BME280;55563;52.416;13.548;2022-11-30T07:08:25;102081.06;;;2.77;100.00
68594;BME280;55563;52.416;13.548;2022-11-30T07:10:26;102088.03;;;2.77;100.00
68594;BME280;55563;52.416;13.548;2022-11-30T07:12:27;102081.22;;;2.76;100.00
68594;BME280;55563;52.416;13.548;2022-11-30T07:14:28;102081.22;;;2.76;100.00
68594;BME280;55563;52.416;13.548;2022-11-30T07:16:30;102089.66;;;2.78;100.00
68594;BME280;55563;52.416;13.548;2022-11-30T07:18:31;102090.28;;;2.80;100.00
68594;BME280;55563;52.416;13.548;2022-11-30T07:20:32;102094.03;;;2.77;100.00
68594;BME280;55563;52.416;13.548;2022-11-30T07:22:33;102090.44;;;2.78;100.00
68594;BME280;55563;52.416;13.548;2022-11-30T07:24:37;102098.88;;;2.80;100.00
68594;BME280;55563;52.416;13.548;2022-11-30T07:26:59;102095.63;;;2.86;100.00
68594;BME280;55563;52.416;13.548;2022-11-30T07:29:00;102106.00;;;2.86;100.00
68594;BME280;55563;52.416;13.548;2022-11-30T07:31:15;102102.88;;;2.91;100.00
68594;BME280;55563;52.416;13.548;2022-11-30T07:33:17;102099.63;;;2.89;100.00
68594;BME280;55563;52.416;13.548;2022-11-30T07:35:17;102111.66;;;2.90;100.00
68594;BME280;55563;52.416;13.548;2022-11-30T07:37:18;102109.88;;;2.90;100.00
68594;BME280;55563;52.416;13.548;2022-11-30T07:39:19;102108.09;;;2.91;100.00
68594;BME280;55563;52.416;13.548;2022-11-30T07:41:20;102111.28;;;2.93;100.00
68594;BME280;55563;52.416;13.548;2022-11-30T07:43:21;102109.06;;;2.90;100.00
68594;BME280;55563;52.416;13.548;2022-11-30T07:45:22;102115.06;;;2.90;100.00
68594;BME280;55563;52.416;13.548;2022-11-30T07:47:22;102108.53;;;2.94;100.00
68594;BME280;55563;52.416;13.548;2022-11-30T07:49:23;102117.66;;;2.90;100.00
68594;BME280;55563;52.416;13.548;2022-11-30T07:51:24;102119.28;;;2.91;100.00
68594;BME280;55563;52.416;13.548;2022-11-30T07:53:25;102115.34;;;2.95;100.00
68594;BME280;55563;52.416;13.548;2022-11-30T07:55:25;102123.16;;;2.95;100.00
68594;BME280;55563;52.416;13.548;2022-11-30T07:57:26;102120.53;;;2.95;100.00
68594;BME280;55563;52.416;13.548;2022-11-30T07:59:27;102120.03;;;3.00;100.00
68594;BME280;55563;52.416;13.548;2022-11-30T08:01:30;102126.84;;;3.01;100.00
68594;BME280;55563;52.416;13.548;2022-11-30T08:03:32;102121.31;;;3.04;100.00
68594;BME280;55563;52.416;13.548;2022-11-30T08:05:33;102126.84;;;3.01;100.00
68594;BME280;55563;52.416;13.548;2022-11-30T08:07:33;102124.25;;;3.01;100.00
68594;BME280;55563;52.416;13.548;2022-11-30T08:09:34;102124.88;;;3.03;100.00
68594;BME280;55563;52.416;13.548;2022-11-30T08:11:35;102122.09;;;3.04;100.00
68594;BME280;55563;52.416;13.548;2022-11-30T08:13:36;102128.56;;;3.08;100.00
68594;BME280;55563;52.416;13.548;2022-11-30T08:15:37;102131.34;;;3.07;100.00
68594;BME280;55563;52.416;13.548;2022-11-30T08:17:38;102129.75;;;3.06;100.00
68594;BME280;55563;52.416;13.548;2022-11-30T08:19:39;102128.13;;;3.05;100.00
68594;BME280;55563;52.416;13.548;2022-11-30T08:21:40;102131.34;;;3.07;100.00
68594;BME280;55563;52.416;13.548;2022-11-30T08:23:42;102139.78;;;3.09;100.00
68594;BME280;55563;52.416;13.548;2022-11-30T08:25:43;102135.03;;;3.13;100.00
68594;BME280;55563;52.416;13.548;2022-11-30T08:27:44;102135.84;;;3.13;100.00
68594;BME280;55563;52.416;13.548;2022-11-30T08:29:44;102136.50;;;3.15;100.00
68594;BME280;55563;52.416;13.548;2022-11-30T08:31:45;102140.72;;;3.16;100.00
68594;BME280;55563;52.416;13.548;2022-11-30T08:33:46;102145.72;;;3.18;100.00
68594;BME280;55563;52.416;13.548;2022-11-30T08:35:48;102146.22;;;3.21;100.00
68594;BME280;55563;52.416;13.548;2022-11-30T08:37:48;102147.28;;;3.27;100.00
68594;BME280;55563;52.416;13.548;2022-11-30T08:39:49;102140.13;;;3.29;100.00
68594;BME280;55563;52.416;13.548;2022-11-30T08:41:50;102148.28;;;3.26;100.00
68594;BME280;55563;52.416;13.548;2022-11-30T08:43:52;102149.34;;;3.31;100.00
68594;BME280;55563;52.416;13.548;2022-11-30T08:45:53;102144.34;;;3.30;100.00
68594;BME280;55563;52.416;13.548;2022-11-30T08:47:54;102149.34;;;3.31;100.00
68594;BME280;55563;52.416;13.548;2022-11-30T08:49:56;102144.97;;;3.32;100.00
68594;BME280;55563;52.416;13.548;2022-11-30T08:51:57;102155.34;;;3.40;100.00
68594;BME280;55563;52.416;13.548;2022-11-30T08:53:58;102152.00;;;3.46;100.00
68594;BME280;55563;52.416;13.548;2022-11-30T08:56:01;102151.22;;;3.45;100.00
68594;BME280;55563;52.416;13.548;2022-11-30T08:58:02;102148.06;;;3.35;100.00
68594;BME280;55563;52.416;13.548;2022-11-30T09:00:03;102147.31;;;3.49;100.00
68594;BME280;55563;52.416;13.548;2022-11-30T09:02:05;102153.75;;;3.54;100.00
68594;BME280;55563;52.416;13.548;2022-11-30T09:04:05;102150.28;;;3.61;100.00
68594;BME280;55563;52.416;13.548;2022-11-30T09:06:10;102153.16;;;3.66;100.00
68594;BME280;55563;52.416;13.548;2022-11-30T09:08:12;102156.28;;;3.62;100.00
68594;BME280;55563;52.416;13.548;2022-11-30T09:10:13;102159.63;;;3.70;100.00
68594;BME280;55563;52.416;13.548;2022-11-30T09:12:14;102160.63;;;3.69;100.00
68594;BME280;55563;52.416;13.548;2022-11-30T09:14:14;102155.53;;;3.76;100.00
68594;BME280;55563;52.416;13.548;2022-11-30T09:16:17;102160.47;;;3.85;100.00
68594;BME280;55563;52.416;13.548;2022-11-30T09:18:18;102158.84;;;3.84;100.00
68594;BME280;55563;52.416;13.548;2022-11-30T09:20:19;102160.38;;;3.93;100.00
68594;BME280;55563;52.416;13.548;2022-11-30T09:22:19;102154.41;;;3.93;100.00
68594;BME280;55563;52.416;13.548;2022-11-30T09:24:20;102158.50;;;3.87;100.00
68594;BME280;55563;52.416;13.548;2022-11-30T09:26:22;102149.94;;;4.02;100.00
68594;BME280;55563;52.416;13.548;2022-11-30T09:28:25;102150.91;;;4.01;100.00
68594;BME280;55563;52.416;13.548;2022-11-30T09:30:26;102147.22;;;4.10;100.00
68594;BME280;55563;52.416;13.548;2022-11-30T09:32:27;102151.63;;;4.09;100.00
68594;BME280;55563;52.416;13.548;2022-11-30T09:34:28;102144.81;;;4.08;100.00
68594;BME280;55563;52.416;13.548;2022-11-30T09:36:29;102156.03;;;4.09;100.00
68594;BME280;55563;52.416;13.548;2022-11-30T09:38:30;102148.41;;;4.07;100.00
68594;BME280;55563;52.416;13.548;2022-11-30T09:40:32;102160.22;;;3.95;100.00
68594;BME280;55563;52.416;13.548;2022-11-30T09:42:44;102154.31;;;4.01;100.00
68594;BME280;55563;52.416;13.548;2022-11-30T09:49:21;102145.56;;;4.17;100.00
68594;BME280;55563;52.416;13.548;2022-11-30T09:51:28;102146.34;;;4.17;100.00
68594;BME280;55563;52.416;13.548;2022-11-30T09:53:41;102135.69;;;4.12;100.00
68594;BME280;55563;52.416;13.548;2022-11-30T09:55:43;102139.97;;;4.05;100.00
68594;BME280;55563;52.416;13.548;2022-11-30T09:57:47;102137.09;;;4.15;100.00
68594;BME280;55563;52.416;13.548;2022-11-30T10:00:11;102143.38;;;4.20;100.00
68594;BME280;55563;52.416;13.548;2022-11-30T10:02:16;102143.47;;;4.27;100.00
68594;BME280;55563;52.416;13.548;2022-11-30T10:04:25;102143.66;;;4.25;100.00
68594;BME280;55563;52.416;13.548;2022-11-30T10:06:39;102135.84;;;4.25;100.00
68594;BME280;55563;52.416;13.548;2022-11-30T10:08:49;102148.66;;;4.27;100.00
68594;BME280;55563;52.416;13.548;2022-11-30T10:11:18;102134.66;;;4.28;100.00
68594;BME280;55563;52.416;13.548;2022-11-30T10:16:06;102146.00;;;4.50;100.00
68594;BME280;55563;52.416;13.548;2022-11-30T10:18:21;102150.91;;;4.59;100.00
68594;BME280;55563;52.416;13.548;2022-11-30T10:25:29;102149.75;;;4.47;100.00
68594;BME280;55563;52.416;13.548;2022-11-30T10:27:57;102144.00;;;4.52;100.00
68594;BME280;55563;52.416;13.548;2022-11-30T10:30:01;102151.53;;;4.61;100.00
68594;BME280;55563;52.416;13.548;2022-11-30T10:32:11;102145.44;;;4.69;100.00
68594;BME280;55563;52.416;13.548;2022-11-30T10:36:33;102144.78;;;4.67;100.00
68594;BME280;55563;52.416;13.548;2022-11-30T10:38:41;102145.06;;;4.72;100.00
68594;BME280;55563;52.416;13.548;2022-11-30T10:45:47;102133.81;;;4.71;100.00
68594;BME280;55563;52.416;13.548;2022-11-30T10:50:24;102141.75;;;4.99;100.00
68594;BME280;55563;52.416;13.548;2022-11-30T10:52:30;102131.63;;;4.90;100.00
68594;BME280;55563;52.416;13.548;2022-11-30T10:54:34;102135.28;;;4.95;100.00
68594;BME280;55563;52.416;13.548;2022-11-30T10:56:35;102147.41;;;5.03;100.00
68594;BME280;55563;52.416;13.548;2022-11-30T10:58:45;102147.22;;;5.04;100.00
68594;BME280;55563;52.416;13.548;2022-11-30T11:01:08;102142.81;;;5.05;100.00
68594;BME280;55563;52.416;13.548;2022-11-30T11:03:25;102142.97;;;5.18;100.00
68594;BME280;55563;52.416;13.548;2022-11-30T11:05:28;102144.56;;;5.19;100.00
68594;BME280;55563;52.416;13.548;2022-11-30T11:07:30;102144.75;;;5.17;100.00